sensor_id;sensor_type;location;lat;lon;timestamp;pressure;altitude;pressure_sealevel;temperature;humidity
15914;BME280;8055;51.930;8.840;2024-01-30T00:02:09;77871.72;;;-145.72;100.00
15914;BME280;8055;51.930;8.840;2024-01-30T00:04:34;77863.44;;;-145.72;100.00
15914;BME280;8055;51.930;8.840;2024-01-30T00:06:59;77865.50;;;-145.72;100.00
15914;BME280;8055;51.930;8.840;2024-01-30T00:09:25;77867.56;;;-145.72;100.00
15914;BME280;8055;51.930;8.840;2024-01-30T00:11:50;77873.78;;;-145.72;100.00
15914;BME280;8055;51.930;8.840;2024-01-30T00:14:16;77875.84;;;-145.72;100.00
15914;BME280;8055;51.930;8.840;2024-01-30T00:16:41;77871.72;;;-145.72;100.00
15914;BME280;8055;51.930;8.840;2024-01-30T00:19:06;77873.78;;;-145.72;100.00
15914;BME280;8055;51.930;8.840;2024-01-30T00:21:33;77875.84;;;-145.72;100.00
15914;BME280;8055;51.930;8.840;2024-01-30T00:23:59;77871.72;;;-145.72;100.00
15914;BME280;8055;51.930;8.840;2024-01-30T00:26:24;77869.63;;;-145.72;100.00
15914;BME280;8055;51.930;8.840;2024-01-30T00:28:50;77873.78;;;-145.72;100.00
15914;BME280;8055;51.930;8.840;2024-01-30T00:31:15;77877.91;;;-145.72;100.00
15914;BME280;8055;51.930;8.840;2024-01-30T00:33:41;77875.84;;;-145.72;100.00
15914;BME280;8055;51.930;8.840;2024-01-30T00:36:08;77882.06;;;-145.72;100.00
15914;BME280;8055;51.930;8.840;2024-01-30T00:38:34;77886.19;;;-145.72;100.00
15914;BME280;8055;51.930;8.840;2024-01-30T00:40:59;77888.28;;;-145.72;100.00
15914;BME280;8055;51.930;8.840;2024-01-30T00:43:24;77882.06;;;-145.72;100.00
15914;BME280;8055;51.930;8.840;2024-01-30T00:45:51;77884.13;;;-145.72;100.00
15914;BME280;8055;51.930;8.840;2024-01-30T00:48:18;77882.06;;;-145.72;100.00
15914;BME280;8055;51.930;8.840;2024-01-30T00:50:43;77886.19;;;-145.72;100.00
15914;BME280;8055;51.930;8.840;2024-01-30T00:53:08;77888.28;;;-145.72;100.00
15914;BME280;8055;51.930;8.840;2024-01-30T00:55:35;77886.19;;;-145.72;100.00
15914;BME280;8055;51.930;8.840;2024-01-30T00:58:01;77894.47;;;-145.72;100.00
15914;BME280;8055;51.930;8.840;2024-01-30T01:00:26;77892.41;;;-145.72;100.00
15914;BME280;8055;51.930;8.840;2024-01-30T01:02:57;77896.56;;;-145.72;100.00
15914;BME280;8055;51.930;8.840;2024-01-30T01:05:22;77892.41;;;-145.72;100.00
15914;BME280;8055;51.930;8.840;2024-01-30T01:07:47;77894.47;;;-145.72;100.00
15914;BME280;8055;51.930;8.840;2024-01-30T01:10:14;77890.34;;;-145.72;100.00
15914;BME280;8055;51.930;8.840;2024-01-30T01:12:39;77886.19;;;-145.72;100.00
15914;BME280;8055;51.930;8.840;2024-01-30T01:15:05;77890.34;;;-145.72;100.00
15914;BME280;8055;51.930;8.840;2024-01-30T01:17:34;77886.19;;;-145.72;100.00
15914;BME280;8055;51.930;8.840;2024-01-30T01:19:59;77890.34;;;-145.72;100.00
15914;BME280;8055;51.930;8.840;2024-01-30T01:22:25;77888.28;;;-145.72;100.00
15914;BME280;8055;51.930;8.840;2024-01-30T01:24:50;77882.06;;;-145.72;100.00
15914;BME280;8055;51.930;8.840;2024-01-30T01:27:16;77884.13;;;-145.72;100.00
15914;BME280;8055;51.930;8.840;2024-01-30T01:29:41;77886.19;;;-145.72;100.00
15914;BME280;8055;51.930;8.840;2024-01-30T01:32:06;77888.28;;;-145.72;100.00
15914;BME280;8055;51.930;8.840;2024-01-30T01:34:32;77888.28;;;-145.72;100.00
15914;BME280;8055;51.930;8.840;2024-01-30T01:36:57;77880.00;;;-145.72;100.00
15914;BME280;8055;51.930;8.840;2024-01-30T01:39:22;77886.19;;;-145.72;100.00
15914;BME280;8055;51.930;8.840;2024-01-30T01:41:51;77886.19;;;-145.72;100.00
15914;BME280;8055;51.930;8.840;2024-01-30T01:44:17;77890.34;;;-145.72;100.00
15914;BME280;8055;51.930;8.840;2024-01-30T01:46:43;77886.19;;;-145.72;100.00
15914;BME280;8055;51.930;8.840;2024-01-30T01:49:09;77884.13;;;-145.72;100.00
15914;BME280;8055;51.930;8.840;2024-01-30T01:51:36;77890.34;;;-145.72;100.00
15914;BME280;8055;51.930;8.840;2024-01-30T01:54:03;77890.34;;;-145.72;100.00
15914;BME280;8055;51.930;8.840;2024-01-30T01:56:29;77884.13;;;-145.72;100.00
15914;BME280;8055;51.930;8.840;2024-01-30T01:58:59;77888.28;;;-145.72;100.00
15914;BME280;8055;51.930;8.840;2024-01-30T02:01:26;77884.13;;;-145.72;100.00
15914;BME280;8055;51.930;8.840;2024-01-30T02:03:52;77882.06;;;-145.72;100.00
15914;BME280;8055;51.930;8.840;2024-01-30T02:06:18;77882.06;;;-145.72;100.00
15914;BME280;8055;51.930;8.840;2024-01-30T02:08:44;77877.91;;;-145.72;100.00
15914;BME280;8055;51.930;8.840;2024-01-30T02:11:10;77877.91;;;-145.72;100.00
15914;BME280;8055;51.930;8.840;2024-01-30T02:13:36;77880.00;;;-145.72;100.00
15914;BME280;8055;51.930;8.840;2024-01-30T02:16:02;77877.91;;;-145.72;100.00
15914;BME280;8055;51.930;8.840;2024-01-30T02:18:27;77873.78;;;-145.72;100.00
15914;BME280;8055;51.930;8.840;2024-01-30T02:20:54;77873.78;;;-145.72;100.00
15914;BME280;8055;51.930;8.840;2024-01-30T02:23:23;77865.50;;;-145.72;100.00
15914;BME280;8055;51.930;8.840;2024-01-30T02:25:50;77865.50;;;-145.72;100.00
15914;BME280;8055;51.930;8.840;2024-01-30T02:28:18;77857.22;;;-145.72;100.00
15914;BME280;8055;51.930;8.840;2024-01-30T02:30:43;77853.06;;;-145.72;100.00
15914;BME280;8055;51.930;8.840;2024-01-30T02:33:08;77853.06;;;-145.72;100.00
15914;BME280;8055;51.930;8.840;2024-01-30T02:35:34;77846.88;;;-145.72;100.00
15914;BME280;8055;51.930;8.840;2024-01-30T02:37:59;77842.72;;;-145.72;100.00
15914;BME280;8055;51.930;8.840;2024-01-30T02:40:25;77851.00;;;-145.72;100.00
15914;BME280;8055;51.930;8.840;2024-01-30T02:42:50;77851.00;;;-145.72;100.00
15914;BME280;8055;51.930;8.840;2024-01-30T02:45:15;77853.06;;;-145.72;100.00
15914;BME280;8055;51.930;8.840;2024-01-30T02:47:41;77853.06;;;-145.72;100.00
15914;BME280;8055;51.930;8.840;2024-01-30T02:50:06;77853.06;;;-145.72;100.00
15914;BME280;8055;51.930;8.840;2024-01-30T02:52:32;77853.06;;;-145.72;100.00
15914;BME280;8055;51.930;8.840;2024-01-30T02:54:57;77857.22;;;-145.72;100.00
15914;BME280;8055;51.930;8.840;2024-01-30T02:57:22;77853.06;;;-145.72;100.00
15914;BME280;8055;51.930;8.840;2024-01-30T02:59:48;77848.94;;;-145.72;100.00
15914;BME280;8055;51.930;8.840;2024-01-30T03:02:13;77842.72;;;-145.72;100.00
15914;BME280;8055;51.930;8.840;2024-01-30T03:04:41;77840.66;;;-145.72;100.00
15914;BME280;8055;51.930;8.840;2024-01-30T03:07:06;77832.38;;;-145.72;100.00
15914;BME280;8055;51.930;8.840;2024-01-30T03:09:31;77832.38;;;-145.72;100.00
15914;BME280;8055;51.930;8.840;2024-01-30T03:11:57;77828.22;;;-145.72;100.00
15914;BME280;8055;51.930;8.840;2024-01-30T03:14:22;77830.31;;;-145.72;100.00
15914;BME280;8055;51.930;8.840;2024-01-30T03:16:47;77824.09;;;-145.72;100.00
15914;BME280;8055;51.930;8.840;2024-01-30T03:19:13;77819.94;;;-145.72;100.00
15914;BME280;8055;51.930;8.840;2024-01-30T03:21:38;77826.16;;;-145.72;100.00
15914;BME280;8055;51.930;8.840;2024-01-30T03:24:03;77815.81;;;-145.72;100.00
15914;BME280;8055;51.930;8.840;2024-01-30T03:26:29;77815.81;;;-145.72;100.00
15914;BME280;8055;51.930;8.840;2024-01-30T03:28:54;77815.81;;;-145.72;100.00
15914;BME280;8055;51.930;8.840;2024-01-30T03:31:19;77815.81;;;-145.72;100.00
15914;BME280;8055;51.930;8.840;2024-01-30T03:33:45;77811.66;;;-145.72;100.00
15914;BME280;8055;51.930;8.840;2024-01-30T03:36:11;77809.59;;;-145.72;100.00
15914;BME280;8055;51.930;8.840;2024-01-30T03:38:36;77811.66;;;-145.72;100.00
15914;BME280;8055;51.930;8.840;2024-01-30T03:41:02;77811.66;;;-145.72;100.00
15914;BME280;8055;51.930;8.840;2024-01-30T03:43:27;77811.66;;;-145.72;100.00
15914;BME280;8055;51.930;8.840;2024-01-30T03:45:52;77809.59;;;-145.72;100.00
15914;BME280;8055;51.930;8.840;2024-01-30T03:48:18;77801.31;;;-145.72;100.00
15914;BME280;8055;51.930;8.840;2024-01-30T03:50:44;77809.59;;;-145.72;100.00
15914;BME280;8055;51.930;8.840;2024-01-30T03:53:09;77811.66;;;-145.72;100.00
15914;BME280;8055;51.930;8.840;2024-01-30T03:55:35;77811.66;;;-145.72;100.00
15914;BME280;8055;51.930;8.840;2024-01-30T03:58:01;77811.66;;;-145.72;100.00
15914;BME280;8055;51.930;8.840;2024-01-30T04:00:26;77807.53;;;-145.72;100.00
15914;BME280;8055;51.930;8.840;2024-01-30T04:02:51;77801.31;;;-145.72;100.00
15914;BME280;8055;51.930;8.840;2024-01-30T04:05:17;77799.25;;;-145.72;100.00
15914;BME280;8055;51.930;8.840;2024-01-30T04:07:42;77805.47;;;-145.72;100.00
15914;BME280;8055;51.930;8.840;2024-01-30T04:10:09;77786.81;;;-145.72;100.00
15914;BME280;8055;51.930;8.840;2024-01-30T04:12:35;77780.63;;;-145.72;100.00
15914;BME280;8055;51.930;8.840;2024-01-30T04:15:00;77778.56;;;-145.72;100.00
15914;BME280;8055;51.930;8.840;2024-01-30T04:17:26;77766.13;;;-145.72;100.00
15914;BME280;8055;51.930;8.840;2024-01-30T04:19:51;77753.72;;;-145.72;100.00
15914;BME280;8055;51.930;8.840;2024-01-30T04:22:16;77755.78;;;-145.72;100.00
15914;BME280;8055;51.930;8.840;2024-01-30T04:24:42;77766.13;;;-145.72;100.00
15914;BME280;8055;51.930;8.840;2024-01-30T04:27:07;77764.06;;;-145.72;100.00
15914;BME280;8055;51.930;8.840;2024-01-30T04:29:32;77778.56;;;-145.72;100.00
15914;BME280;8055;51.930;8.840;2024-01-30T04:31:58;77776.47;;;-145.72;100.00
15914;BME280;8055;51.930;8.840;2024-01-30T04:34:24;77784.75;;;-145.72;100.00
15914;BME280;8055;51.930;8.840;2024-01-30T04:36:49;77795.09;;;-145.72;100.00
15914;BME280;8055;51.930;8.840;2024-01-30T04:39:15;77797.19;;;-145.72;100.00
15914;BME280;8055;51.930;8.840;2024-01-30T04:41:40;77809.59;;;-145.72;100.00
15914;BME280;8055;51.930;8.840;2024-01-30T04:44:05;77815.81;;;-145.72;100.00
15914;BME280;8055;51.930;8.840;2024-01-30T04:46:31;77811.66;;;-145.72;100.00
15914;BME280;8055;51.930;8.840;2024-01-30T04:48:59;77822.03;;;-145.72;100.00
15914;BME280;8055;51.930;8.840;2024-01-30T04:51:24;77828.22;;;-145.72;100.00
15914;BME280;8055;51.930;8.840;2024-01-30T04:53:49;77824.09;;;-145.72;100.00
15914;BME280;8055;51.930;8.840;2024-01-30T04:56:15;77830.31;;;-145.72;100.00
15914;BME280;8055;51.930;8.840;2024-01-30T04:58:40;77832.38;;;-145.72;100.00
15914;BME280;8055;51.930;8.840;2024-01-30T05:01:05;77834.44;;;-145.72;100.00
15914;BME280;8055;51.930;8.840;2024-01-30T05:03:34;77830.31;;;-145.72;100.00
15914;BME280;8055;51.930;8.840;2024-01-30T05:06:00;77832.38;;;-145.72;100.00
15914;BME280;8055;51.930;8.840;2024-01-30T05:08:25;77830.31;;;-145.72;100.00
15914;BME280;8055;51.930;8.840;2024-01-30T05:10:51;77824.09;;;-145.72;100.00
15914;BME280;8055;51.930;8.840;2024-01-30T05:13:16;77828.22;;;-145.72;100.00
15914;BME280;8055;51.930;8.840;2024-01-30T05:15:41;77828.22;;;-145.72;100.00
15914;BME280;8055;51.930;8.840;2024-01-30T05:18:07;77830.31;;;-145.72;100.00
15914;BME280;8055;51.930;8.840;2024-01-30T05:20:32;77830.31;;;-145.72;100.00
15914;BME280;8055;51.930;8.840;2024-01-30T05:22:57;77836.50;;;-145.72;100.00
15914;BME280;8055;51.930;8.840;2024-01-30T05:25:23;77834.44;;;-145.72;100.00
15914;BME280;8055;51.930;8.840;2024-01-30T05:27:49;77832.38;;;-145.72;100.00
15914;BME280;8055;51.930;8.840;2024-01-30T05:30:15;77828.22;;;-145.72;100.00
15914;BME280;8055;51.930;8.840;2024-01-30T05:32:40;77832.38;;;-145.72;100.00
15914;BME280;8055;51.930;8.840;2024-01-30T05:35:06;77832.38;;;-145.72;100.00
15914;BME280;8055;51.930;8.840;2024-01-30T05:37:33;77836.50;;;-145.72;100.00
15914;BME280;8055;51.930;8.840;2024-01-30T05:39:59;77834.44;;;-145.72;100.00
15914;BME280;8055;51.930;8.840;2024-01-30T05:42:24;77832.38;;;-145.72;100.00
15914;BME280;8055;51.930;8.840;2024-01-30T05:44:50;77840.66;;;-145.72;100.00
15914;BME280;8055;51.930;8.840;2024-01-30T05:47:15;77828.22;;;-145.72;100.00
15914;BME280;8055;51.930;8.840;2024-01-30T05:49:41;77828.22;;;-145.72;100.00
15914;BME280;8055;51.930;8.840;2024-01-30T05:52:07;77832.38;;;-145.72;100.00
15914;BME280;8055;51.930;8.840;2024-01-30T05:54:32;77834.44;;;-145.72;100.00
15914;BME280;8055;51.930;8.840;2024-01-30T05:56:57;77832.38;;;-145.72;100.00
15914;BME280;8055;51.930;8.840;2024-01-30T05:59:23;77834.44;;;-145.72;100.00
15914;BME280;8055;51.930;8.840;2024-01-30T06:01:48;77830.31;;;-145.72;100.00
15914;BME280;8055;51.930;8.840;2024-01-30T06:04:14;77838.59;;;-145.72;100.00
15914;BME280;8055;51.930;8.840;2024-01-30T06:06:40;77828.22;;;-145.72;100.00
15914;BME280;8055;51.930;8.840;2024-01-30T06:09:06;77834.44;;;-145.72;100.00
15914;BME280;8055;51.930;8.840;2024-01-30T06:11:33;77828.22;;;-145.72;100.00
15914;BME280;8055;51.930;8.840;2024-01-30T06:13:58;77834.44;;;-145.72;100.00
15914;BME280;8055;51.930;8.840;2024-01-30T06:16:24;77832.38;;;-145.72;100.00
15914;BME280;8055;51.930;8.840;2024-01-30T06:18:49;77828.22;;;-145.72;100.00
15914;BME280;8055;51.930;8.840;2024-01-30T06:21:14;77824.09;;;-145.72;100.00
15914;BME280;8055;51.930;8.840;2024-01-30T06:23:40;77813.75;;;-145.72;100.00
15914;BME280;8055;51.930;8.840;2024-01-30T06:26:06;77817.88;;;-145.72;100.00
15914;BME280;8055;51.930;8.840;2024-01-30T06:28:32;77813.75;;;-145.72;100.00
15914;BME280;8055;51.930;8.840;2024-01-30T06:30:57;77815.81;;;-145.72;100.00
15914;BME280;8055;51.930;8.840;2024-01-30T06:33:22;77807.53;;;-145.72;100.00
15914;BME280;8055;51.930;8.840;2024-01-30T06:35:48;77803.38;;;-145.72;100.00
15914;BME280;8055;51.930;8.840;2024-01-30T06:38:13;77801.31;;;-145.72;100.00
15914;BME280;8055;51.930;8.840;2024-01-30T06:40:41;77793.03;;;-145.72;100.00
15914;BME280;8055;51.930;8.840;2024-01-30T06:43:06;77795.09;;;-145.72;100.00
15914;BME280;8055;51.930;8.840;2024-01-30T06:45:33;77795.09;;;-145.72;100.00
15914;BME280;8055;51.930;8.840;2024-01-30T06:47:59;77797.19;;;-145.72;100.00
15914;BME280;8055;51.930;8.840;2024-01-30T06:50:25;77799.25;;;-145.72;100.00
15914;BME280;8055;51.930;8.840;2024-01-30T06:52:50;77793.03;;;-145.72;100.00
15914;BME280;8055;51.930;8.840;2024-01-30T06:55:16;77801.31;;;-145.72;100.00
15914;BME280;8055;51.930;8.840;2024-01-30T06:57:41;77797.19;;;-145.72;100.00
15914;BME280;8055;51.930;8.840;2024-01-30T07:00:07;77801.31;;;-145.72;100.00
15914;BME280;8055;51.930;8.840;2024-01-30T07:02:32;77799.25;;;-145.72;100.00
15914;BME280;8055;51.930;8.840;2024-01-30T07:04:58;77799.25;;;-145.72;100.00
15914;BME280;8055;51.930;8.840;2024-01-30T07:07:23;77809.59;;;-145.72;100.00
15914;BME280;8055;51.930;8.840;2024-01-30T07:09:49;77797.19;;;-145.72;100.00
15914;BME280;8055;51.930;8.840;2024-01-30T07:12:17;77795.09;;;-145.72;100.00
15914;BME280;8055;51.930;8.840;2024-01-30T07:14:43;77799.25;;;-145.72;100.00
15914;BME280;8055;51.930;8.840;2024-01-30T07:17:08;77790.97;;;-145.72;100.00
15914;BME280;8055;51.930;8.840;2024-01-30T07:19:33;77784.75;;;-145.72;100.00
15914;BME280;8055;51.930;8.840;2024-01-30T07:22:00;77790.97;;;-145.72;100.00
15914;BME280;8055;51.930;8.840;2024-01-30T07:24:26;77782.69;;;-145.72;100.00
15914;BME280;8055;51.930;8.840;2024-01-30T07:26:52;77774.41;;;-145.72;100.00
15914;BME280;8055;51.930;8.840;2024-01-30T07:29:17;77782.69;;;-145.72;100.00
15914;BME280;8055;51.930;8.840;2024-01-30T07:31:43;77786.81;;;-145.72;100.00
15914;BME280;8055;51.930;8.840;2024-01-30T07:34:09;77772.34;;;-145.72;100.00
15914;BME280;8055;51.930;8.840;2024-01-30T07:36:34;77768.19;;;-145.72;100.00
15914;BME280;8055;51.930;8.840;2024-01-30T07:38:59;77764.06;;;-145.72;100.00
15914;BME280;8055;51.930;8.840;2024-01-30T07:41:25;77761.97;;;-145.72;100.00
15914;BME280;8055;51.930;8.840;2024-01-30T07:43:50;77757.84;;;-145.72;100.00
15914;BME280;8055;51.930;8.840;2024-01-30T07:46:16;77753.72;;;-145.72;100.00
15914;BME280;8055;51.930;8.840;2024-01-30T07:48:41;77751.63;;;-145.72;100.00
15914;BME280;8055;51.930;8.840;2024-01-30T07:51:06;77743.34;;;-145.72;100.00
15914;BME280;8055;51.930;8.840;2024-01-30T07:53:32;77741.28;;;-145.72;100.00
15914;BME280;8055;51.930;8.840;2024-01-30T07:55:57;77733.00;;;-145.72;100.00
15914;BME280;8055;51.930;8.840;2024-01-30T07:58:22;77733.00;;;-145.72;100.00
15914;BME280;8055;51.930;8.840;2024-01-30T08:00:49;77730.94;;;-145.72;100.00
15914;BME280;8055;51.930;8.840;2024-01-30T08:03:14;77724.72;;;-145.72;100.00
15914;BME280;8055;51.930;8.840;2024-01-30T08:05:41;77735.06;;;-145.72;100.00
15914;BME280;8055;51.930;8.840;2024-01-30T08:08:07;77728.88;;;-145.72;100.00
15914;BME280;8055;51.930;8.840;2024-01-30T08:10:32;77728.88;;;-145.72;100.00
15914;BME280;8055;51.930;8.840;2024-01-30T08:12:58;77730.94;;;-145.72;100.00
15914;BME280;8055;51.930;8.840;2024-01-30T08:15:23;77730.94;;;-145.72;100.00
15914;BME280;8055;51.930;8.840;2024-01-30T08:17:48;77726.78;;;-145.72;100.00
15914;BME280;8055;51.930;8.840;2024-01-30T08:20:14;77722.66;;;-145.72;100.00
15914;BME280;8055;51.930;8.840;2024-01-30T08:22:39;77714.38;;;-145.72;100.00
15914;BME280;8055;51.930;8.840;2024-01-30T08:25:08;77712.31;;;-145.72;100.00
15914;BME280;8055;51.930;8.840;2024-01-30T08:27:35;77699.88;;;-145.72;100.00
15914;BME280;8055;51.930;8.840;2024-01-30T08:30:02;77695.75;;;-145.72;100.00
15914;BME280;8055;51.930;8.840;2024-01-30T08:32:28;77697.81;;;-145.72;100.00
15914;BME280;8055;51.930;8.840;2024-01-30T08:34:53;77693.66;;;-145.72;100.00
15914;BME280;8055;51.930;8.840;2024-01-30T08:37:18;77687.47;;;-145.72;100.00
15914;BME280;8055;51.930;8.840;2024-01-30T08:39:44;77683.31;;;-145.72;100.00
15914;BME280;8055;51.930;8.840;2024-01-30T08:42:09;77675.03;;;-145.72;100.00
15914;BME280;8055;51.930;8.840;2024-01-30T08:44:35;77670.91;;;-145.72;100.00
15914;BME280;8055;51.930;8.840;2024-01-30T08:47:00;77658.47;;;-145.72;100.00
15914;BME280;8055;51.930;8.840;2024-01-30T08:49:26;77656.41;;;-145.72;100.00
15914;BME280;8055;51.930;8.840;2024-01-30T08:51:51;77650.19;;;-145.72;100.00
15914;BME280;8055;51.930;8.840;2024-01-30T08:54:17;77646.06;;;-145.72;100.00
15914;BME280;8055;51.930;8.840;2024-01-30T08:56:42;77633.63;;;-145.72;100.00
15914;BME280;8055;51.930;8.840;2024-01-30T08:59:08;77633.63;;;-145.72;100.00
15914;BME280;8055;51.930;8.840;2024-01-30T09:01:33;77629.50;;;-145.72;100.00
15914;BME280;8055;51.930;8.840;2024-01-30T09:03:59;77623.28;;;-145.72;100.00
15914;BME280;8055;51.930;8.840;2024-01-30T09:06:24;77615.00;;;-145.72;100.00
15914;BME280;8055;51.930;8.840;2024-01-30T09:08:53;77606.72;;;-145.72;100.00
15914;BME280;8055;51.930;8.840;2024-01-30T09:11:18;77592.22;;;-145.72;100.00
15914;BME280;8055;51.930;8.840;2024-01-30T09:13:44;77581.88;;;-145.72;100.00
15914;BME280;8055;51.930;8.840;2024-01-30T09:16:09;77561.19;;;-145.72;100.00
15914;BME280;8055;51.930;8.840;2024-01-30T09:18:34;77559.09;;;-145.72;100.00
15914;BME280;8055;51.930;8.840;2024-01-30T09:21:00;77552.91;;;-145.72;100.00
15914;BME280;8055;51.930;8.840;2024-01-30T09:23:27;77536.34;;;-145.72;100.00
15914;BME280;8055;51.930;8.840;2024-01-30T09:25:53;77519.78;;;-145.72;100.00
15914;BME280;8055;51.930;8.840;2024-01-30T09:28:18;77523.91;;;-145.72;100.00
15914;BME280;8055;51.930;8.840;2024-01-30T09:30:43;77511.50;;;-145.72;100.00
15914;BME280;8055;51.930;8.840;2024-01-30T09:33:09;77499.06;;;-145.72;100.00
15914;BME280;8055;51.930;8.840;2024-01-30T09:35:38;77490.78;;;-145.72;100.00
15914;BME280;8055;51.930;8.840;2024-01-30T09:38:03;77470.09;;;-145.72;100.00
15914;BME280;8055;51.930;8.840;2024-01-30T09:40:29;77461.81;;;-145.72;100.00
15914;BME280;8055;51.930;8.840;2024-01-30T09:42:54;77457.66;;;-145.72;100.00
15914;BME280;8055;51.930;8.840;2024-01-30T09:45:24;77443.19;;;-145.72;100.00
15914;BME280;8055;51.930;8.840;2024-01-30T09:47:50;77432.81;;;-145.72;100.00
15914;BME280;8055;51.930;8.840;2024-01-30T09:50:16;77422.47;;;-145.72;100.00
15914;BME280;8055;51.930;8.840;2024-01-30T09:52:42;77397.63;;;-145.72;100.00
15914;BME280;8055;51.930;8.840;2024-01-30T09:55:08;77389.34;;;-145.72;100.00
15914;BME280;8055;51.930;8.840;2024-01-30T09:57:35;77368.66;;;-145.72;100.00
15914;BME280;8055;51.930;8.840;2024-01-30T10:00:01;77354.16;;;-145.72;100.00
15914;BME280;8055;51.930;8.840;2024-01-30T10:02:27;77345.88;;;-145.72;100.00
15914;BME280;8055;51.930;8.840;2024-01-30T10:04:52;77339.69;;;-145.72;100.00
15914;BME280;8055;51.930;8.840;2024-01-30T10:07:18;77323.13;;;-145.72;100.00
15914;BME280;8055;51.930;8.840;2024-01-30T10:09:44;77314.84;;;-145.72;100.00
15914;BME280;8055;51.930;8.840;2024-01-30T10:12:10;77294.13;;;-145.72;100.00
15914;BME280;8055;51.930;8.840;2024-01-30T10:14:39;77275.50;;;-145.72;100.00
15914;BME280;8055;51.930;8.840;2024-01-30T10:17:04;77265.16;;;-145.72;100.00
15914;BME280;8055;51.930;8.840;2024-01-30T10:19:31;77252.72;;;-145.72;100.00
15914;BME280;8055;51.930;8.840;2024-01-30T10:21:56;77246.53;;;-145.72;100.00
15914;BME280;8055;51.930;8.840;2024-01-30T10:24:25;77254.81;;;-145.72;100.00
15914;BME280;8055;51.930;8.840;2024-01-30T10:26:50;77258.94;;;-145.72;100.00
15914;BME280;8055;51.930;8.840;2024-01-30T10:29:16;77261.00;;;-145.72;100.00
15914;BME280;8055;51.930;8.840;2024-01-30T10:31:42;77265.16;;;-145.72;100.00
15914;BME280;8055;51.930;8.840;2024-01-30T10:34:07;77267.22;;;-145.72;100.00
15914;BME280;8055;51.930;8.840;2024-01-30T10:36:39;77261.00;;;-145.72;100.00
15914;BME280;8055;51.930;8.840;2024-01-30T10:39:06;77258.94;;;-145.72;100.00
15914;BME280;8055;51.930;8.840;2024-01-30T10:41:39;77252.72;;;-145.72;100.00
15914;BME280;8055;51.930;8.840;2024-01-30T10:44:10;77248.59;;;-145.72;100.00
15914;BME280;8055;51.930;8.840;2024-01-30T10:46:37;77238.25;;;-145.72;100.00
15914;BME280;8055;51.930;8.840;2024-01-30T10:49:04;77236.19;;;-145.72;100.00
15914;BME280;8055;51.930;8.840;2024-01-30T10:51:31;77234.09;;;-145.72;100.00
15914;BME280;8055;51.930;8.840;2024-01-30T10:53:57;77223.75;;;-145.72;100.00
15914;BME280;8055;51.930;8.840;2024-01-30T10:56:23;77205.13;;;-145.72;100.00
15914;BME280;8055;51.930;8.840;2024-01-30T10:58:50;77190.63;;;-145.72;100.00
15914;BME280;8055;51.930;8.840;2024-01-30T11:01:17;77169.94;;;-145.72;100.00
15914;BME280;8055;51.930;8.840;2024-01-30T11:03:43;77155.44;;;-145.72;100.00
15914;BME280;8055;51.930;8.840;2024-01-30T11:06:11;77124.41;;;-145.72;100.00
15914;BME280;8055;51.930;8.840;2024-01-30T11:08:39;77116.13;;;-145.72;100.00
15914;BME280;8055;51.930;8.840;2024-01-30T11:11:08;77091.28;;;-145.72;100.00
15914;BME280;8055;51.930;8.840;2024-01-30T11:13:34;77089.22;;;-145.72;100.00
15914;BME280;8055;51.930;8.840;2024-01-30T11:16:03;77064.38;;;-145.72;100.00
15914;BME280;8055;51.930;8.840;2024-01-30T11:18:31;77051.94;;;-145.72;100.00
15914;BME280;8055;51.930;8.840;2024-01-30T11:20:59;77027.13;;;-145.72;100.00
15914;BME280;8055;51.930;8.840;2024-01-30T11:23:27;77008.47;;;-145.72;100.00
15914;BME280;8055;51.930;8.840;2024-01-30T11:25:53;76983.66;;;-145.72;100.00
15914;BME280;8055;51.930;8.840;2024-01-30T11:28:21;76927.75;;;-145.72;100.00
15914;BME280;8055;51.930;8.840;2024-01-30T11:30:47;76923.63;;;-145.72;100.00
15914;BME280;8055;51.930;8.840;2024-01-30T11:33:27;76917.41;;;-145.72;100.00
15914;BME280;8055;51.930;8.840;2024-01-30T11:35:52;76905.00;;;-145.72;100.00
15914;BME280;8055;51.930;8.840;2024-01-30T11:38:18;76876.00;;;-145.72;100.00
15914;BME280;8055;51.930;8.840;2024-01-30T11:40:43;76871.88;;;-145.72;100.00
15914;BME280;8055;51.930;8.840;2024-01-30T11:43:09;76847.03;;;-145.72;100.00
15914;BME280;8055;51.930;8.840;2024-01-30T11:45:35;76811.84;;;-145.72;100.00
15914;BME280;8055;51.930;8.840;2024-01-30T11:48:02;76807.72;;;-145.72;100.00
15914;BME280;8055;51.930;8.840;2024-01-30T11:50:31;76780.81;;;-145.72;100.00
15914;BME280;8055;51.930;8.840;2024-01-30T11:52:59;76753.91;;;-145.72;100.00
15914;BME280;8055;51.930;8.840;2024-01-30T11:55:25;76727.00;;;-145.72;100.00
15914;BME280;8055;51.930;8.840;2024-01-30T11:57:51;76698.00;;;-145.72;99.34
15914;BME280;8055;51.930;8.840;2024-01-30T12:00:18;76679.38;;;-145.72;98.48
15914;BME280;8055;51.930;8.840;2024-01-30T12:02:44;76662.81;;;-145.72;94.92
15914;BME280;8055;51.930;8.840;2024-01-30T12:05:09;76627.66;;;-145.72;93.62
15914;BME280;8055;51.930;8.840;2024-01-30T12:07:35;76606.94;;;-145.72;92.59
15914;BME280;8055;51.930;8.840;2024-01-30T12:10:01;76582.13;;;-145.72;91.27
15914;BME280;8055;51.930;8.840;2024-01-30T12:12:27;76555.22;;;-145.72;90.01
15914;BME280;8055;51.930;8.840;2024-01-30T12:14:53;76544.84;;;-145.72;88.81
15914;BME280;8055;51.930;8.840;2024-01-30T12:17:34;76524.16;;;-145.72;89.86
15914;BME280;8055;51.930;8.840;2024-01-30T12:20:12;76540.72;;;-145.72;88.43
15914;BME280;8055;51.930;8.840;2024-01-30T12:22:44;76540.72;;;-145.72;88.04
15914;BME280;8055;51.930;8.840;2024-01-30T12:25:11;76544.84;;;-145.72;88.10
15914;BME280;8055;51.930;8.840;2024-01-30T12:27:37;76557.28;;;-145.72;88.55
15914;BME280;8055;51.930;8.840;2024-01-30T12:32:35;76592.47;;;-145.72;89.58
15914;BME280;8055;51.930;8.840;2024-01-30T12:35:01;76580.03;;;-145.72;88.45
15914;BME280;8055;51.930;8.840;2024-01-30T12:37:26;76584.19;;;-145.72;88.88